createdAt,value
2017-12-03T00:00:18.169Z,1.50
2017-12-03T00:02:45.598Z,1.60
2017-12-03T00:05:13.790Z,1.70
2017-12-03T00:07:41.229Z,1.70
2017-12-03T00:10:09.426Z,1.80
2017-12-03T00:12:36.854Z,1.70
2017-12-03T00:15:04.283Z,1.80
2017-12-03T00:17:31.727Z,1.90
2017-12-03T00:19:59.181Z,1.90
2017-12-03T00:22:26.617Z,1.90
2017-12-03T00:24:54.046Z,1.90
2017-12-03T00:27:22.247Z,1.90
2017-12-03T00:29:49.771Z,1.90
2017-12-03T00:32:17.211Z,1.80
2017-12-03T00:34:44.642Z,1.90
2017-12-03T00:37:12.075Z,1.90
2017-12-03T00:39:39.499Z,1.90
2017-12-03T00:42:06.930Z,1.90
2017-12-03T00:44:35.181Z,1.90
2017-12-03T00:47:02.611Z,1.90
2017-12-03T00:49:30.803Z,1.90
2017-12-03T00:51:58.248Z,1.90
2017-12-03T00:54:25.670Z,1.90
2017-12-03T00:56:53.113Z,1.90
2017-12-03T00:59:20.539Z,1.90
2017-12-03T01:01:47.976Z,1.80
2017-12-03T01:04:15.406Z,1.90
2017-12-03T01:06:43.645Z,2.00
2017-12-03T01:09:11.061Z,1.90
2017-12-03T01:11:39.255Z,2.00
2017-12-03T01:14:06.683Z,1.90
2017-12-03T01:16:34.870Z,1.90
2017-12-03T01:19:02.304Z,1.90
2017-12-03T01:21:29.734Z,1.80
2017-12-03T01:23:57.176Z,1.80
2017-12-03T01:26:24.607Z,1.80
2017-12-03T01:28:52.036Z,1.80
2017-12-03T01:31:20.236Z,1.80
2017-12-03T01:33:47.667Z,1.70
2017-12-03T01:36:15.867Z,1.90
2017-12-03T01:38:43.296Z,1.80
2017-12-03T01:41:11.494Z,1.80
2017-12-03T01:43:38.931Z,1.80
2017-12-03T01:46:07.127Z,1.70
2017-12-03T01:48:34.559Z,1.70
2017-12-03T01:51:02.751Z,1.60
2017-12-03T01:53:30.189Z,1.60
2017-12-03T01:55:57.621Z,1.60
2017-12-03T01:58:25.068Z,1.60
2017-12-03T02:00:52.508Z,1.70
2017-12-03T02:03:19.947Z,1.70
2017-12-03T02:05:49.419Z,1.80
2017-12-03T02:08:16.846Z,1.90
2017-12-03T02:10:44.279Z,1.80
2017-12-03T02:13:11.716Z,1.80
2017-12-03T02:15:39.143Z,1.70
2017-12-03T02:18:06.574Z,1.70
2017-12-03T02:20:34.011Z,1.60
2017-12-03T02:23:01.454Z,1.60
2017-12-03T02:25:28.884Z,1.60
2017-12-03T02:27:57.087Z,1.60
2017-12-03T02:30:24.517Z,1.60
2017-12-03T02:32:52.722Z,1.60
2017-12-03T02:35:20.235Z,1.50
2017-12-03T02:37:47.674Z,1.60
2017-12-03T02:40:15.104Z,1.70
2017-12-03T02:42:42.548Z,1.60
2017-12-03T02:45:09.980Z,1.70
2017-12-03T02:47:38.196Z,1.70
2017-12-03T02:50:05.620Z,1.70
2017-12-03T02:52:33.044Z,1.70
2017-12-03T02:55:00.485Z,1.80
2017-12-03T02:57:27.921Z,1.70
2017-12-03T02:59:55.466Z,1.60
2017-12-03T03:02:23.647Z,1.60
2017-12-03T03:04:51.076Z,1.60
2017-12-03T03:07:19.287Z,1.70
2017-12-03T03:09:46.724Z,1.60
2017-12-03T03:12:14.156Z,1.60
2017-12-03T03:14:41.596Z,1.50
2017-12-03T03:17:09.023Z,1.60
2017-12-03T03:19:36.464Z,1.70
2017-12-03T03:22:03.891Z,1.70
2017-12-03T03:24:32.103Z,1.60
2017-12-03T03:26:59.532Z,1.50
2017-12-03T03:29:26.968Z,1.60
2017-12-03T03:31:55.159Z,1.60
2017-12-03T03:34:22.600Z,1.60
2017-12-03T03:36:50.809Z,1.60
2017-12-03T03:39:18.240Z,1.60
2017-12-03T03:41:46.436Z,1.50
2017-12-03T03:44:13.880Z,1.50
2017-12-03T03:46:42.078Z,1.50
2017-12-03T03:49:09.522Z,1.50
2017-12-03T03:51:36.943Z,1.50
2017-12-03T03:54:04.404Z,1.50
2017-12-03T03:56:31.843Z,1.40
2017-12-03T03:58:59.277Z,1.50
2017-12-03T04:01:26.722Z,1.50
2017-12-03T04:03:54.153Z,1.50
2017-12-03T04:06:22.359Z,1.50
2017-12-03T04:08:49.787Z,1.40
2017-12-03T04:11:17.233Z,1.50
2017-12-03T04:13:45.428Z,1.40
2017-12-03T04:16:12.868Z,1.40
2017-12-03T04:18:41.059Z,1.40
2017-12-03T04:21:08.497Z,1.40
2017-12-03T04:23:36.688Z,1.50
2017-12-03T04:26:04.124Z,1.50
2017-12-03T04:28:32.324Z,1.50
2017-12-03T04:30:59.781Z,1.40
2017-12-03T04:33:27.199Z,1.40
2017-12-03T04:35:54.632Z,1.30
2017-12-03T04:38:22.072Z,1.30
2017-12-03T04:40:49.511Z,1.30
2017-12-03T04:43:17.755Z,1.40
2017-12-03T04:45:45.203Z,1.40
2017-12-03T04:48:12.623Z,1.40
2017-12-03T04:50:40.055Z,1.30
2017-12-03T04:53:07.500Z,1.30
2017-12-03T04:55:35.700Z,1.20
2017-12-03T04:58:03.147Z,1.20
2017-12-03T05:00:30.579Z,1.30
2017-12-03T05:02:58.791Z,1.30
2017-12-03T05:05:26.219Z,1.30
2017-12-03T05:07:54.419Z,1.40
2017-12-03T05:10:21.849Z,1.30
2017-12-03T05:12:50.051Z,1.30
2017-12-03T05:15:17.489Z,1.30
2017-12-03T05:17:44.920Z,1.30
2017-12-03T05:20:12.348Z,1.40
2017-12-03T05:22:39.791Z,1.40
2017-12-03T05:25:07.229Z,1.50
2017-12-03T05:27:34.681Z,1.40
2017-12-03T05:30:02.113Z,1.30
2017-12-03T05:32:30.314Z,1.40
2017-12-03T05:34:57.760Z,1.40
2017-12-03T05:37:25.945Z,1.30
2017-12-03T05:39:53.380Z,1.30
2017-12-03T05:42:21.612Z,1.20
2017-12-03T05:44:49.028Z,1.20
2017-12-03T05:47:16.463Z,1.20
2017-12-03T05:49:44.664Z,1.10
2017-12-03T05:52:12.102Z,1.10
2017-12-03T05:54:40.302Z,1.10
2017-12-03T05:57:07.731Z,1.10
2017-12-03T05:59:35.933Z,1.00
2017-12-03T06:02:04.236Z,1.00
2017-12-03T06:04:31.652Z,1.00
2017-12-03T06:06:59.083Z,1.00
2017-12-03T06:09:26.521Z,1.00
2017-12-03T06:11:53.957Z,1.00
2017-12-03T06:14:21.434Z,1.00
2017-12-03T06:16:48.872Z,1.00
2017-12-03T06:19:16.318Z,1.00
2017-12-03T06:21:43.744Z,1.10
2017-12-03T06:24:11.947Z,1.10
2017-12-03T06:26:39.376Z,1.10
2017-12-03T06:29:07.586Z,1.00
2017-12-03T06:31:35.020Z,1.00
2017-12-03T06:34:02.459Z,1.10
2017-12-03T06:36:30.656Z,1.10
2017-12-03T06:38:58.096Z,1.00
2017-12-03T06:41:26.300Z,1.10
2017-12-03T06:43:53.741Z,1.00
2017-12-03T06:46:21.172Z,1.00
2017-12-03T06:48:49.380Z,0.80
2017-12-03T06:51:16.812Z,0.80
2017-12-03T06:53:45.017Z,0.70
2017-12-03T06:56:12.444Z,0.70
2017-12-03T06:58:40.644Z,0.70
2017-12-03T07:01:08.068Z,0.70
2017-12-03T07:03:36.290Z,0.70
2017-12-03T07:06:03.717Z,0.70
2017-12-03T07:08:31.926Z,0.70
2017-12-03T07:10:59.432Z,0.70
2017-12-03T07:13:26.875Z,0.70
2017-12-03T07:15:54.300Z,0.70
2017-12-03T07:18:21.739Z,0.60
2017-12-03T07:20:49.172Z,0.70
2017-12-03T07:23:17.820Z,0.70
2017-12-03T07:25:45.253Z,0.70
2017-12-03T07:28:12.692Z,0.60
2017-12-03T07:30:40.153Z,0.60
2017-12-03T07:33:07.610Z,0.60
2017-12-03T07:35:35.035Z,0.60
2017-12-03T07:38:03.244Z,0.50
2017-12-03T07:40:30.676Z,0.50
2017-12-03T07:42:58.884Z,0.60
2017-12-03T07:45:26.326Z,0.60
2017-12-03T07:47:53.757Z,0.60
2017-12-03T07:50:21.956Z,0.60
2017-12-03T07:52:49.400Z,0.60
2017-12-03T07:55:17.609Z,0.60
2017-12-03T07:57:45.120Z,0.60
2017-12-03T08:00:17.076Z,0.70
2017-12-03T08:02:44.512Z,0.70
2017-12-03T08:05:11.942Z,0.70
2017-12-03T08:07:39.380Z,0.80
2017-12-03T08:10:06.816Z,0.80
2017-12-03T08:12:35.023Z,0.70
2017-12-03T08:15:02.536Z,0.70
2017-12-03T08:17:29.977Z,0.70
2017-12-03T08:19:57.421Z,0.70
2017-12-03T08:22:24.846Z,0.70
2017-12-03T08:24:52.287Z,0.70
2017-12-03T08:27:19.720Z,0.70
2017-12-03T08:29:47.157Z,0.60
2017-12-03T08:32:14.592Z,0.50
2017-12-03T08:34:42.032Z,0.50
2017-12-03T08:37:09.463Z,0.50
2017-12-03T08:39:37.669Z,0.40
2017-12-03T08:42:05.097Z,0.40
2017-12-03T08:44:33.308Z,0.40
2017-12-03T08:47:00.737Z,0.30
2017-12-03T08:49:28.175Z,0.30
2017-12-03T08:51:56.381Z,0.40
2017-12-03T08:54:23.827Z,0.40
2017-12-03T08:56:51.268Z,0.50
2017-12-03T08:59:19.484Z,0.50
2017-12-03T09:01:46.911Z,0.50
2017-12-03T09:04:14.355Z,0.50
2017-12-03T09:06:42.547Z,0.40
2017-12-03T09:09:09.981Z,0.40
2017-12-03T09:11:38.198Z,0.40
2017-12-03T09:14:05.637Z,0.40
2017-12-03T09:16:33.080Z,0.30
2017-12-03T09:19:00.505Z,0.30
2017-12-03T09:21:27.984Z,0.40
2017-12-03T09:23:56.191Z,0.50
2017-12-03T09:26:23.624Z,0.40
2017-12-03T09:28:51.833Z,0.60
2017-12-03T09:31:19.266Z,0.60
2017-12-03T09:33:47.497Z,0.70
2017-12-03T09:36:14.929Z,0.70
2017-12-03T09:38:42.373Z,0.70
2017-12-03T09:41:09.803Z,0.70
2017-12-03T09:43:38.014Z,0.60
2017-12-03T09:46:05.447Z,0.60
2017-12-03T09:48:32.888Z,0.60
2017-12-03T09:51:01.079Z,0.50
2017-12-03T09:53:28.523Z,0.50
2017-12-03T09:55:56.715Z,0.50
2017-12-03T09:58:24.160Z,0.50
2017-12-03T10:00:52.356Z,0.60
2017-12-03T10:03:19.787Z,0.60
2017-12-03T10:05:47.991Z,0.40
2017-12-03T10:08:15.446Z,0.40
2017-12-03T10:10:42.872Z,0.40
2017-12-03T10:13:11.076Z,0.40
2017-12-03T10:15:38.593Z,0.40
2017-12-03T10:18:06.032Z,0.50
2017-12-03T10:20:33.467Z,0.50
2017-12-03T10:23:00.919Z,0.50
2017-12-03T10:25:28.392Z,0.50
2017-12-03T10:27:55.811Z,0.50
2017-12-03T10:30:23.240Z,0.40
2017-12-03T10:32:50.681Z,0.40
2017-12-03T10:35:18.155Z,0.50
2017-12-03T10:37:58.116Z,0.50
2017-12-03T10:40:26.319Z,0.50
2017-12-03T10:42:53.785Z,0.50
2017-12-03T10:45:21.215Z,0.50
2017-12-03T10:47:50.396Z,0.50
2017-12-03T10:50:17.829Z,0.50
2017-12-03T10:52:45.259Z,0.40
2017-12-03T10:55:12.701Z,0.50
2017-12-03T10:57:40.141Z,0.40
2017-12-03T11:00:08.399Z,0.50
2017-12-03T11:02:36.595Z,0.50
2017-12-03T11:05:04.033Z,0.50
2017-12-03T11:07:32.240Z,0.40
2017-12-03T11:09:59.667Z,0.40
2017-12-03T11:12:27.874Z,0.50
2017-12-03T11:14:55.357Z,0.50
2017-12-03T11:17:23.552Z,0.60
2017-12-03T11:19:50.992Z,0.50
2017-12-03T11:22:19.197Z,0.60
2017-12-03T11:24:46.636Z,0.50
2017-12-03T11:27:14.072Z,0.50
2017-12-03T11:29:41.524Z,0.50
2017-12-03T11:32:08.962Z,0.40
2017-12-03T11:34:36.399Z,0.50
2017-12-03T11:37:04.610Z,0.40
2017-12-03T11:39:32.056Z,0.40
2017-12-03T11:41:59.503Z,0.50
2017-12-03T11:44:26.941Z,0.50
2017-12-03T11:46:55.143Z,0.50
2017-12-03T11:49:22.577Z,0.50
2017-12-03T11:51:50.788Z,0.50
2017-12-03T11:54:18.225Z,0.50
2017-12-03T11:56:45.700Z,0.50
2017-12-03T11:59:13.131Z,0.50
2017-12-03T12:01:41.643Z,0.50
2017-12-03T12:04:09.076Z,0.50
2017-12-03T12:06:36.539Z,0.60
2017-12-03T12:09:04.105Z,0.60
2017-12-03T12:11:31.776Z,0.70
2017-12-03T12:14:00.432Z,0.60
2017-12-03T12:16:28.683Z,0.70
2017-12-03T12:18:56.120Z,0.60
2017-12-03T12:21:23.561Z,0.60
2017-12-03T12:23:51.056Z,0.70
2017-12-03T12:26:18.494Z,0.80
2017-12-03T12:28:45.928Z,0.70
2017-12-03T12:31:13.367Z,0.80
2017-12-03T12:33:40.802Z,0.80
2017-12-03T12:36:09.044Z,0.70
2017-12-03T12:38:36.480Z,0.70
2017-12-03T12:41:03.930Z,0.80
2017-12-03T12:43:31.365Z,0.80
2017-12-03T12:45:58.912Z,0.80
2017-12-03T12:48:26.376Z,0.90
2017-12-03T12:50:53.816Z,0.80
2017-12-03T12:53:22.043Z,0.90
2017-12-03T12:55:49.492Z,0.90
2017-12-03T12:58:16.956Z,0.90
2017-12-03T13:00:44.412Z,1.00
2017-12-03T13:03:17.444Z,1.00
2017-12-03T13:05:44.882Z,1.10
2017-12-03T13:08:12.410Z,1.20
2017-12-03T13:10:39.844Z,1.20
2017-12-03T13:13:07.343Z,1.20
2017-12-03T13:15:34.782Z,1.30
2017-12-03T13:18:02.211Z,1.30
2017-12-03T13:20:29.647Z,1.30
2017-12-03T13:22:57.848Z,1.20
2017-12-03T13:25:25.291Z,1.20
2017-12-03T13:27:53.497Z,1.30
2017-12-03T13:30:20.931Z,1.20
2017-12-03T13:32:48.365Z,1.20
2017-12-03T13:35:15.802Z,1.10
2017-12-03T13:37:43.244Z,1.20
2017-12-03T13:40:10.686Z,1.10
2017-12-03T13:42:38.193Z,1.20
2017-12-03T13:45:05.637Z,1.20
2017-12-03T13:47:33.142Z,1.10
2017-12-03T13:50:01.358Z,1.10
2017-12-03T13:52:28.780Z,1.10
2017-12-03T13:55:06.339Z,1.20
2017-12-03T13:57:34.786Z,1.20
2017-12-03T14:00:08.699Z,1.20
2017-12-03T14:02:40.691Z,1.20
2017-12-03T14:05:08.897Z,1.20
2017-12-03T14:07:37.340Z,1.20
2017-12-03T14:10:04.791Z,1.30
2017-12-03T14:12:32.392Z,1.30
2017-12-03T14:15:00.568Z,1.10
2017-12-03T14:17:27.999Z,1.10
2017-12-03T14:19:56.205Z,1.10
2017-12-03T14:22:25.587Z,1.10
2017-12-03T14:24:53.825Z,1.10
2017-12-03T14:27:21.263Z,1.10
2017-12-03T14:29:48.747Z,1.10
2017-12-03T14:32:16.180Z,1.00
2017-12-03T14:34:44.391Z,0.90
2017-12-03T14:37:11.909Z,0.90
2017-12-03T14:39:39.365Z,0.90
2017-12-03T14:42:06.923Z,0.80
2017-12-03T14:44:34.348Z,0.80
2017-12-03T14:47:01.805Z,0.80
2017-12-03T14:49:29.252Z,0.80
2017-12-03T14:51:57.472Z,0.80
2017-12-03T14:54:24.928Z,0.80
2017-12-03T14:56:54.417Z,0.80
2017-12-03T14:59:21.812Z,0.80
2017-12-03T15:01:49.290Z,0.80
2017-12-03T15:04:16.715Z,0.80
2017-12-03T15:06:44.317Z,0.80
2017-12-03T15:09:12.526Z,0.80
2017-12-03T15:11:39.960Z,0.80
2017-12-03T15:14:07.391Z,0.80
2017-12-03T15:16:34.844Z,0.80
2017-12-03T15:19:02.274Z,0.70
2017-12-03T15:21:29.720Z,0.60
2017-12-03T15:23:57.163Z,0.70
2017-12-03T15:26:28.168Z,0.60
2017-12-03T15:28:55.628Z,0.60
2017-12-03T15:31:23.057Z,0.60
2017-12-03T15:33:50.545Z,0.60
2017-12-03T15:36:18.761Z,0.70
2017-12-03T15:38:46.193Z,0.70
2017-12-03T15:41:13.634Z,0.70
2017-12-03T15:43:43.848Z,0.70
2017-12-03T15:46:11.284Z,0.60
2017-12-03T15:48:38.727Z,0.70
2017-12-03T15:51:06.165Z,0.70
2017-12-03T15:53:33.587Z,0.70
2017-12-03T15:56:01.802Z,0.80
2017-12-03T15:58:29.244Z,0.70
2017-12-03T16:00:56.677Z,0.80
2017-12-03T16:03:24.892Z,0.70
2017-12-03T16:05:52.320Z,0.70
2017-12-03T16:08:19.753Z,0.70
2017-12-03T16:10:47.188Z,0.80
2017-12-03T16:13:14.635Z,0.80
2017-12-03T16:15:42.824Z,0.80
2017-12-03T16:18:11.036Z,0.90
2017-12-03T16:20:39.242Z,0.90
2017-12-03T16:23:06.686Z,0.90
2017-12-03T16:25:34.122Z,0.90
2017-12-03T16:28:02.393Z,0.90
2017-12-03T16:30:30.598Z,0.90
2017-12-03T16:32:58.084Z,0.80
2017-12-03T16:35:25.528Z,0.90
2017-12-03T16:37:52.980Z,1.00
2017-12-03T16:40:20.548Z,0.90
2017-12-03T16:42:47.962Z,0.90
2017-12-03T16:45:16.175Z,1.00
2017-12-03T16:47:43.629Z,0.90
2017-12-03T16:50:11.052Z,0.90
2017-12-03T16:52:38.493Z,1.00
2017-12-03T16:55:05.957Z,1.00
2017-12-03T16:57:35.159Z,0.90
2017-12-03T17:00:04.379Z,0.90
2017-12-03T17:02:33.753Z,0.90
2017-12-03T17:05:03.976Z,0.90
2017-12-03T17:07:33.174Z,0.90
2017-12-03T17:10:00.626Z,0.90
2017-12-03T17:12:28.048Z,0.80
2017-12-03T17:14:55.523Z,0.80
2017-12-03T17:17:23.001Z,0.80
2017-12-03T17:19:51.212Z,0.80
2017-12-03T17:22:18.656Z,0.80
2017-12-03T17:24:46.145Z,0.80
2017-12-03T17:27:13.628Z,0.80
2017-12-03T17:29:41.036Z,0.80
2017-12-03T17:32:08.485Z,0.80
2017-12-03T17:34:35.912Z,0.80
2017-12-03T17:37:03.356Z,0.70
2017-12-03T17:39:30.797Z,0.70
2017-12-03T17:41:58.238Z,0.60
2017-12-03T17:44:25.680Z,0.60
2017-12-03T17:46:53.132Z,0.60
2017-12-03T17:49:20.581Z,0.50
2017-12-03T17:51:48.006Z,0.60
2017-12-03T17:54:15.453Z,0.60
2017-12-03T17:56:42.896Z,0.70
2017-12-03T17:59:10.336Z,0.70
2017-12-03T18:01:37.784Z,0.70
2017-12-03T18:04:05.219Z,0.80
2017-12-03T18:06:32.665Z,0.80
2017-12-03T18:09:00.092Z,0.80
2017-12-03T18:11:27.530Z,0.80
2017-12-03T18:13:54.991Z,0.80
2017-12-03T18:16:23.340Z,0.80
2017-12-03T18:18:50.772Z,0.80
2017-12-03T18:21:18.977Z,0.90
2017-12-03T18:23:46.422Z,0.80
2017-12-03T18:26:13.860Z,0.90
2017-12-03T18:28:42.079Z,0.90
2017-12-03T18:31:09.542Z,0.90
2017-12-03T18:33:36.975Z,0.90
2017-12-03T18:36:04.420Z,0.90
2017-12-03T18:38:31.861Z,0.90
2017-12-03T18:41:00.056Z,0.80
2017-12-03T18:43:28.524Z,0.80
2017-12-03T18:45:57.415Z,0.90
2017-12-03T18:48:25.629Z,0.90
2017-12-03T18:50:53.059Z,0.90
2017-12-03T18:53:21.270Z,1.00
2017-12-03T18:55:48.855Z,1.00
2017-12-03T18:58:16.326Z,1.00
2017-12-03T19:00:51.033Z,0.90
2017-12-03T19:03:18.533Z,0.90
2017-12-03T19:05:45.977Z,0.80
2017-12-03T19:08:14.180Z,0.90
2017-12-03T19:10:41.721Z,0.90
2017-12-03T19:13:09.915Z,0.90
2017-12-03T19:15:37.352Z,0.80
2017-12-03T19:18:05.548Z,0.80
2017-12-03T19:20:33.008Z,0.80
2017-12-03T19:23:00.441Z,0.90
2017-12-03T19:25:28.681Z,0.90
2017-12-03T19:27:56.091Z,0.80
2017-12-03T19:30:25.598Z,0.90
2017-12-03T19:32:53.036Z,0.90
2017-12-03T19:35:21.340Z,0.90
2017-12-03T19:37:48.792Z,0.90
2017-12-03T19:40:16.245Z,0.90
2017-12-03T19:42:46.908Z,0.90
2017-12-03T19:45:14.343Z,0.90
2017-12-03T19:47:41.772Z,0.90
2017-12-03T19:50:10.049Z,0.80
2017-12-03T19:52:37.469Z,0.80
2017-12-03T19:55:04.941Z,0.80
2017-12-03T19:57:32.381Z,0.90
2017-12-03T19:59:59.812Z,0.90
2017-12-03T20:02:27.280Z,0.90
2017-12-03T20:04:55.499Z,0.80
2017-12-03T20:07:23.750Z,0.80
2017-12-03T20:09:51.173Z,0.80
2017-12-03T20:12:18.615Z,0.80
2017-12-03T20:14:46.051Z,0.80
2017-12-03T20:17:14.265Z,0.80
2017-12-03T20:19:41.704Z,0.80
2017-12-03T20:22:09.152Z,0.90
2017-12-03T20:24:36.589Z,1.00
2017-12-03T20:27:04.824Z,1.00
2017-12-03T20:29:32.255Z,1.00
2017-12-03T20:31:59.705Z,1.00
2017-12-03T20:34:27.140Z,1.00
2017-12-03T20:36:55.350Z,1.10
2017-12-03T20:39:22.795Z,1.00
2017-12-03T20:41:50.233Z,1.10
2017-12-03T20:44:17.689Z,1.10
2017-12-03T20:46:45.902Z,1.10
2017-12-03T20:49:13.353Z,1.10
2017-12-03T20:51:40.784Z,1.20
2017-12-03T20:54:08.224Z,1.20
2017-12-03T20:56:36.433Z,1.10
2017-12-03T20:59:03.928Z,1.10
2017-12-03T21:01:33.369Z,1.10
2017-12-03T21:04:01.586Z,1.10
2017-12-03T21:06:29.030Z,1.10
2017-12-03T21:08:56.496Z,1.20
2017-12-03T21:11:23.987Z,1.20
2017-12-03T21:13:51.428Z,1.20
2017-12-03T21:16:18.879Z,1.20
2017-12-03T21:18:46.419Z,1.10
2017-12-03T21:21:13.841Z,1.10
2017-12-03T21:23:41.275Z,1.10
2017-12-03T21:26:08.718Z,1.20
2017-12-03T21:28:36.151Z,1.10
2017-12-03T21:31:03.602Z,1.10
2017-12-03T21:33:33.077Z,1.10
2017-12-03T21:36:01.291Z,1.20
2017-12-03T21:38:28.726Z,1.20
2017-12-03T21:40:56.170Z,1.20
2017-12-03T21:43:24.408Z,1.30
2017-12-03T21:45:51.828Z,1.20
2017-12-03T21:48:19.347Z,1.30
2017-12-03T21:50:46.791Z,1.30
2017-12-03T21:53:14.341Z,1.30
2017-12-03T21:55:42.537Z,1.30
2017-12-03T21:58:09.976Z,1.30
2017-12-03T22:00:37.424Z,1.20
2017-12-03T22:03:05.836Z,1.30
2017-12-03T22:05:34.183Z,1.30
2017-12-03T22:08:01.637Z,1.30
2017-12-03T22:10:29.079Z,1.30
2017-12-03T22:12:56.520Z,1.30
2017-12-03T22:15:23.944Z,1.30
2017-12-03T22:17:52.152Z,1.40
2017-12-03T22:20:19.587Z,1.40
2017-12-03T22:22:47.800Z,1.50
2017-12-03T22:25:15.344Z,1.40
2017-12-03T22:27:42.755Z,1.50
2017-12-03T22:30:10.185Z,1.50
2017-12-03T22:32:37.631Z,1.60
2017-12-03T22:35:05.056Z,1.60
2017-12-03T22:37:34.247Z,1.60
2017-12-03T22:40:02.448Z,1.60
2017-12-03T22:42:29.896Z,1.50
2017-12-03T22:44:57.328Z,1.60
2017-12-03T22:47:25.546Z,1.70
2017-12-03T22:49:53.008Z,1.70
2017-12-03T22:52:20.451Z,1.80
2017-12-03T22:54:47.935Z,1.80
2017-12-03T22:57:15.332Z,1.70
2017-12-03T22:59:43.608Z,1.80
2017-12-03T23:02:11.812Z,1.70
2017-12-03T23:04:39.256Z,1.70
2017-12-03T23:07:06.692Z,1.70
2017-12-03T23:09:34.180Z,1.80
2017-12-03T23:12:01.628Z,1.80
2017-12-03T23:14:29.072Z,1.70
2017-12-03T23:17:00.928Z,1.60
2017-12-03T23:19:29.148Z,1.60
2017-12-03T23:21:56.588Z,1.60
2017-12-03T23:24:24.076Z,1.60
2017-12-03T23:26:51.508Z,1.60
2017-12-03T23:29:18.947Z,1.60
2017-12-03T23:31:46.387Z,1.60
2017-12-03T23:34:14.587Z,1.50
2017-12-03T23:36:42.025Z,1.50
2017-12-03T23:39:10.242Z,1.60
2017-12-03T23:41:38.497Z,1.50
2017-12-03T23:44:05.932Z,1.50
2017-12-03T23:46:34.136Z,1.60
2017-12-03T23:49:01.652Z,1.50
2017-12-03T23:51:29.106Z,1.60
2017-12-03T23:53:56.549Z,1.70
2017-12-03T23:56:23.985Z,1.70
2017-12-03T23:58:51.424Z,1.70
